sensor_id;sensor_type;location;lat;lon;timestamp;P1;durP1;ratioP1;P2;durP2;ratioP2
61525;SDS011;47394;41.366;-8.738;2022-11-25T00:00:29;33.50;;;9.63;;
61525;SDS011;47394;41.366;-8.738;2022-11-25T00:03:29;30.17;;;9.35;;
61525;SDS011;47394;41.366;-8.738;2022-11-25T00:06:33;28.60;;;8.68;;
61525;SDS011;47394;41.366;-8.738;2022-11-25T00:09:34;33.90;;;9.30;;
61525;SDS011;47394;41.366;-8.738;2022-11-25T00:12:34;34.13;;;11.63;;
61525;SDS011;47394;41.366;-8.738;2022-11-25T00:15:33;49.63;;;12.20;;
61525;SDS011;47394;41.366;-8.738;2022-11-25T00:18:33;43.78;;;11.32;;
61525;SDS011;47394;41.366;-8.738;2022-11-25T00:21:33;56.10;;;13.10;;
61525;SDS011;47394;41.366;-8.738;2022-11-25T00:24:32;93.50;;;14.15;;
61525;SDS011;47394;41.366;-8.738;2022-11-25T00:27:31;90.70;;;13.95;;
61525;SDS011;47394;41.366;-8.738;2022-11-25T00:30:30;91.25;;;14.38;;
61525;SDS011;47394;41.366;-8.738;2022-11-25T00:33:33;98.57;;;13.98;;
61525;SDS011;47394;41.366;-8.738;2022-11-25T00:36:34;71.43;;;14.25;;
61525;SDS011;47394;41.366;-8.738;2022-11-25T00:39:33;51.50;;;10.27;;
61525;SDS011;47394;41.366;-8.738;2022-11-25T00:42:33;65.75;;;11.20;;
61525;SDS011;47394;41.366;-8.738;2022-11-25T00:45:51;63.67;;;10.00;;
61525;SDS011;47394;41.366;-8.738;2022-11-25T00:48:50;49.85;;;10.10;;
61525;SDS011;47394;41.366;-8.738;2022-11-25T00:51:50;40.42;;;8.10;;
61525;SDS011;47394;41.366;-8.738;2022-11-25T00:54:50;68.97;;;11.20;;
61525;SDS011;47394;41.366;-8.738;2022-11-25T00:58:07;63.15;;;9.88;;
61525;SDS011;47394;41.366;-8.738;2022-11-25T01:01:08;65.93;;;11.32;;
61525;SDS011;47394;41.366;-8.738;2022-11-25T01:04:07;80.00;;;12.70;;
61525;SDS011;47394;41.366;-8.738;2022-11-25T01:07:08;73.35;;;9.80;;
61525;SDS011;47394;41.366;-8.738;2022-11-25T01:10:07;59.72;;;9.45;;
61525;SDS011;47394;41.366;-8.738;2022-11-25T01:13:09;65.25;;;10.23;;
61525;SDS011;47394;41.366;-8.738;2022-11-25T01:16:09;66.07;;;11.60;;
61525;SDS011;47394;41.366;-8.738;2022-11-25T01:19:09;57.92;;;10.93;;
61525;SDS011;47394;41.366;-8.738;2022-11-25T01:22:09;66.10;;;11.13;;
61525;SDS011;47394;41.366;-8.738;2022-11-25T01:25:08;85.47;;;10.05;;
61525;SDS011;47394;41.366;-8.738;2022-11-25T01:28:10;61.65;;;10.38;;
61525;SDS011;47394;41.366;-8.738;2022-11-25T01:31:13;68.90;;;9.85;;
61525;SDS011;47394;41.366;-8.738;2022-11-25T01:34:14;60.13;;;11.13;;
61525;SDS011;47394;41.366;-8.738;2022-11-25T01:37:14;76.18;;;11.02;;
61525;SDS011;47394;41.366;-8.738;2022-11-25T01:40:13;67.38;;;10.57;;
61525;SDS011;47394;41.366;-8.738;2022-11-25T01:43:13;47.97;;;11.00;;
61525;SDS011;47394;41.366;-8.738;2022-11-25T01:46:25;43.45;;;9.85;;
61525;SDS011;47394;41.366;-8.738;2022-11-25T01:49:36;43.08;;;9.90;;
61525;SDS011;47394;41.366;-8.738;2022-11-25T01:52:38;40.08;;;8.77;;
61525;SDS011;47394;41.366;-8.738;2022-11-25T01:55:41;40.28;;;9.13;;
61525;SDS011;47394;41.366;-8.738;2022-11-25T01:58:46;55.70;;;9.90;;
61525;SDS011;47394;41.366;-8.738;2022-11-25T02:01:49;33.63;;;8.10;;
61525;SDS011;47394;41.366;-8.738;2022-11-25T02:04:49;55.80;;;10.27;;
61525;SDS011;47394;41.366;-8.738;2022-11-25T02:07:53;48.65;;;8.32;;
61525;SDS011;47394;41.366;-8.738;2022-11-25T02:10:57;42.85;;;7.78;;
61525;SDS011;47394;41.366;-8.738;2022-11-25T02:13:59;35.47;;;7.03;;
61525;SDS011;47394;41.366;-8.738;2022-11-25T02:16:59;39.47;;;8.52;;
61525;SDS011;47394;41.366;-8.738;2022-11-25T02:20:10;32.42;;;7.95;;
61525;SDS011;47394;41.366;-8.738;2022-11-25T02:26:49;36.60;;;7.50;;
61525;SDS011;47394;41.366;-8.738;2022-11-25T02:30:02;30.98;;;7.50;;
61525;SDS011;47394;41.366;-8.738;2022-11-25T02:33:01;36.88;;;7.70;;
61525;SDS011;47394;41.366;-8.738;2022-11-25T02:36:02;29.25;;;6.65;;
61525;SDS011;47394;41.366;-8.738;2022-11-25T02:39:03;45.28;;;8.90;;
61525;SDS011;47394;41.366;-8.738;2022-11-25T02:42:02;40.00;;;8.20;;
61525;SDS011;47394;41.366;-8.738;2022-11-25T02:45:02;44.55;;;8.95;;
61525;SDS011;47394;41.366;-8.738;2022-11-25T02:48:06;41.38;;;8.57;;
61525;SDS011;47394;41.366;-8.738;2022-11-25T02:51:07;30.63;;;8.30;;
61525;SDS011;47394;41.366;-8.738;2022-11-25T02:54:06;33.78;;;8.73;;
61525;SDS011;47394;41.366;-8.738;2022-11-25T02:57:06;31.30;;;9.25;;
61525;SDS011;47394;41.366;-8.738;2022-11-25T03:00:06;38.35;;;9.57;;
61525;SDS011;47394;41.366;-8.738;2022-11-25T03:03:05;44.60;;;9.07;;
61525;SDS011;47394;41.366;-8.738;2022-11-25T03:06:05;40.80;;;9.50;;
61525;SDS011;47394;41.366;-8.738;2022-11-25T03:09:05;43.80;;;10.00;;
61525;SDS011;47394;41.366;-8.738;2022-11-25T03:12:06;42.78;;;10.45;;
61525;SDS011;47394;41.366;-8.738;2022-11-25T03:15:07;36.83;;;9.60;;
61525;SDS011;47394;41.366;-8.738;2022-11-25T03:18:07;44.28;;;9.35;;
61525;SDS011;47394;41.366;-8.738;2022-11-25T03:21:08;40.05;;;9.25;;
61525;SDS011;47394;41.366;-8.738;2022-11-25T03:24:08;38.10;;;9.60;;
61525;SDS011;47394;41.366;-8.738;2022-11-25T03:27:08;30.80;;;9.68;;
61525;SDS011;47394;41.366;-8.738;2022-11-25T03:30:09;31.85;;;9.25;;
61525;SDS011;47394;41.366;-8.738;2022-11-25T03:33:12;33.93;;;9.93;;
61525;SDS011;47394;41.366;-8.738;2022-11-25T03:36:11;34.83;;;8.35;;
61525;SDS011;47394;41.366;-8.738;2022-11-25T03:39:11;31.63;;;8.82;;
61525;SDS011;47394;41.366;-8.738;2022-11-25T03:42:13;30.15;;;8.45;;
61525;SDS011;47394;41.366;-8.738;2022-11-25T03:45:14;45.58;;;9.50;;
61525;SDS011;47394;41.366;-8.738;2022-11-25T03:48:13;42.67;;;11.00;;
61525;SDS011;47394;41.366;-8.738;2022-11-25T03:51:13;38.90;;;10.23;;
61525;SDS011;47394;41.366;-8.738;2022-11-25T03:54:12;44.83;;;10.70;;
61525;SDS011;47394;41.366;-8.738;2022-11-25T03:57:14;27.02;;;9.60;;
61525;SDS011;47394;41.366;-8.738;2022-11-25T04:00:13;43.00;;;11.18;;
61525;SDS011;47394;41.366;-8.738;2022-11-25T04:03:13;33.53;;;10.25;;
61525;SDS011;47394;41.366;-8.738;2022-11-25T04:06:12;34.83;;;10.38;;
61525;SDS011;47394;41.366;-8.738;2022-11-25T04:09:11;44.55;;;10.07;;
61525;SDS011;47394;41.366;-8.738;2022-11-25T04:12:11;36.83;;;10.23;;
61525;SDS011;47394;41.366;-8.738;2022-11-25T04:15:14;60.15;;;18.63;;
61525;SDS011;47394;41.366;-8.738;2022-11-25T04:18:26;60.60;;;21.02;;
61525;SDS011;47394;41.366;-8.738;2022-11-25T04:21:25;61.55;;;22.00;;
61525;SDS011;47394;41.366;-8.738;2022-11-25T04:24:26;50.13;;;17.38;;
61525;SDS011;47394;41.366;-8.738;2022-11-25T04:27:26;29.90;;;13.40;;
61525;SDS011;47394;41.366;-8.738;2022-11-25T04:30:25;46.58;;;14.52;;
61525;SDS011;47394;41.366;-8.738;2022-11-25T04:33:24;42.95;;;14.77;;
61525;SDS011;47394;41.366;-8.738;2022-11-25T04:36:26;43.50;;;15.07;;
61525;SDS011;47394;41.366;-8.738;2022-11-25T04:39:26;52.55;;;17.08;;
61525;SDS011;47394;41.366;-8.738;2022-11-25T04:42:36;40.88;;;16.65;;
61525;SDS011;47394;41.366;-8.738;2022-11-25T04:45:40;46.85;;;17.13;;
61525;SDS011;47394;41.366;-8.738;2022-11-25T04:48:41;37.40;;;17.20;;
61525;SDS011;47394;41.366;-8.738;2022-11-25T04:51:40;43.92;;;17.13;;
61525;SDS011;47394;41.366;-8.738;2022-11-25T04:54:41;39.10;;;14.10;;
61525;SDS011;47394;41.366;-8.738;2022-11-25T04:57:45;38.70;;;15.85;;
61525;SDS011;47394;41.366;-8.738;2022-11-25T05:01:03;27.52;;;15.00;;
61525;SDS011;47394;41.366;-8.738;2022-11-25T05:04:09;29.38;;;13.70;;
61525;SDS011;47394;41.366;-8.738;2022-11-25T05:07:09;31.15;;;15.18;;
61525;SDS011;47394;41.366;-8.738;2022-11-25T05:10:09;32.45;;;13.57;;
61525;SDS011;47394;41.366;-8.738;2022-11-25T05:13:08;28.88;;;13.10;;
61525;SDS011;47394;41.366;-8.738;2022-11-25T05:16:07;28.63;;;12.73;;
61525;SDS011;47394;41.366;-8.738;2022-11-25T05:19:08;40.05;;;12.98;;
61525;SDS011;47394;41.366;-8.738;2022-11-25T05:22:14;30.23;;;12.55;;
61525;SDS011;47394;41.366;-8.738;2022-11-25T05:25:14;27.92;;;13.07;;
61525;SDS011;47394;41.366;-8.738;2022-11-25T05:28:17;31.27;;;14.52;;
61525;SDS011;47394;41.366;-8.738;2022-11-25T05:31:16;38.08;;;14.80;;
61525;SDS011;47394;41.366;-8.738;2022-11-25T05:34:16;36.47;;;14.93;;
61525;SDS011;47394;41.366;-8.738;2022-11-25T05:37:17;29.98;;;14.90;;
61525;SDS011;47394;41.366;-8.738;2022-11-25T05:40:16;35.90;;;14.73;;
61525;SDS011;47394;41.366;-8.738;2022-11-25T05:43:18;36.60;;;14.95;;
61525;SDS011;47394;41.366;-8.738;2022-11-25T05:46:17;32.03;;;13.25;;
61525;SDS011;47394;41.366;-8.738;2022-11-25T05:49:18;31.70;;;12.02;;
61525;SDS011;47394;41.366;-8.738;2022-11-25T05:52:36;28.48;;;13.80;;
61525;SDS011;47394;41.366;-8.738;2022-11-25T05:55:36;28.73;;;14.07;;
61525;SDS011;47394;41.366;-8.738;2022-11-25T05:58:54;34.30;;;15.13;;
61525;SDS011;47394;41.366;-8.738;2022-11-25T06:02:14;47.63;;;17.25;;
61525;SDS011;47394;41.366;-8.738;2022-11-25T06:05:13;32.22;;;15.65;;
61525;SDS011;47394;41.366;-8.738;2022-11-25T06:08:12;37.75;;;15.88;;
61525;SDS011;47394;41.366;-8.738;2022-11-25T06:11:15;29.55;;;14.13;;
61525;SDS011;47394;41.366;-8.738;2022-11-25T06:14:21;28.35;;;12.93;;
61525;SDS011;47394;41.366;-8.738;2022-11-25T06:17:21;25.35;;;12.93;;
61525;SDS011;47394;41.366;-8.738;2022-11-25T06:20:22;27.10;;;13.18;;
61525;SDS011;47394;41.366;-8.738;2022-11-25T06:23:22;33.30;;;12.52;;
61525;SDS011;47394;41.366;-8.738;2022-11-25T06:26:27;32.20;;;12.27;;
61525;SDS011;47394;41.366;-8.738;2022-11-25T06:29:26;26.15;;;11.90;;
61525;SDS011;47394;41.366;-8.738;2022-11-25T06:32:42;22.25;;;11.23;;
61525;SDS011;47394;41.366;-8.738;2022-11-25T06:35:43;32.13;;;12.32;;
61525;SDS011;47394;41.366;-8.738;2022-11-25T06:38:43;29.75;;;12.25;;
61525;SDS011;47394;41.366;-8.738;2022-11-25T06:41:42;23.15;;;11.20;;
61525;SDS011;47394;41.366;-8.738;2022-11-25T06:44:42;26.67;;;12.40;;
61525;SDS011;47394;41.366;-8.738;2022-11-25T06:47:42;35.53;;;13.23;;
61525;SDS011;47394;41.366;-8.738;2022-11-25T06:50:41;31.33;;;13.07;;
61525;SDS011;47394;41.366;-8.738;2022-11-25T06:53:40;31.60;;;14.00;;
61525;SDS011;47394;41.366;-8.738;2022-11-25T06:56:40;53.55;;;17.30;;
61525;SDS011;47394;41.366;-8.738;2022-11-25T06:59:40;39.05;;;17.17;;
61525;SDS011;47394;41.366;-8.738;2022-11-25T07:02:39;37.83;;;16.05;;
61525;SDS011;47394;41.366;-8.738;2022-11-25T07:05:38;35.95;;;17.55;;
61525;SDS011;47394;41.366;-8.738;2022-11-25T07:08:37;40.47;;;17.85;;
61525;SDS011;47394;41.366;-8.738;2022-11-25T07:11:38;35.83;;;17.10;;
61525;SDS011;47394;41.366;-8.738;2022-11-25T07:14:38;35.15;;;15.10;;
61525;SDS011;47394;41.366;-8.738;2022-11-25T07:17:37;37.72;;;15.43;;
61525;SDS011;47394;41.366;-8.738;2022-11-25T07:20:37;34.05;;;15.00;;
61525;SDS011;47394;41.366;-8.738;2022-11-25T07:23:37;29.30;;;13.40;;
61525;SDS011;47394;41.366;-8.738;2022-11-25T07:26:37;34.67;;;15.23;;
61525;SDS011;47394;41.366;-8.738;2022-11-25T07:29:37;37.72;;;14.75;;
61525;SDS011;47394;41.366;-8.738;2022-11-25T07:32:36;30.30;;;14.00;;
61525;SDS011;47394;41.366;-8.738;2022-11-25T07:35:35;31.73;;;13.68;;
61525;SDS011;47394;41.366;-8.738;2022-11-25T07:38:35;39.05;;;13.23;;
61525;SDS011;47394;41.366;-8.738;2022-11-25T07:41:34;35.97;;;13.73;;
61525;SDS011;47394;41.366;-8.738;2022-11-25T07:44:33;38.50;;;13.13;;
61525;SDS011;47394;41.366;-8.738;2022-11-25T07:47:43;43.92;;;14.93;;
61525;SDS011;47394;41.366;-8.738;2022-11-25T07:50:43;34.83;;;14.70;;
61525;SDS011;47394;41.366;-8.738;2022-11-25T07:53:54;33.10;;;14.45;;
61525;SDS011;47394;41.366;-8.738;2022-11-25T07:56:53;34.53;;;14.80;;
61525;SDS011;47394;41.366;-8.738;2022-11-25T07:59:53;29.42;;;14.75;;
61525;SDS011;47394;41.366;-8.738;2022-11-25T08:02:52;37.30;;;15.55;;
61525;SDS011;47394;41.366;-8.738;2022-11-25T08:05:51;45.67;;;16.33;;
61525;SDS011;47394;41.366;-8.738;2022-11-25T08:08:52;31.00;;;14.40;;
61525;SDS011;47394;41.366;-8.738;2022-11-25T08:11:52;28.20;;;13.10;;
61525;SDS011;47394;41.366;-8.738;2022-11-25T08:14:51;31.67;;;13.60;;
61525;SDS011;47394;41.366;-8.738;2022-11-25T08:17:51;30.40;;;14.48;;
61525;SDS011;47394;41.366;-8.738;2022-11-25T08:20:50;36.33;;;16.73;;
61525;SDS011;47394;41.366;-8.738;2022-11-25T08:23:50;35.60;;;15.13;;
61525;SDS011;47394;41.366;-8.738;2022-11-25T08:26:49;30.50;;;15.93;;
61525;SDS011;47394;41.366;-8.738;2022-11-25T08:29:48;42.72;;;18.65;;
61525;SDS011;47394;41.366;-8.738;2022-11-25T08:32:48;41.17;;;18.50;;
61525;SDS011;47394;41.366;-8.738;2022-11-25T08:35:54;35.47;;;18.92;;
61525;SDS011;47394;41.366;-8.738;2022-11-25T08:38:54;39.42;;;20.58;;
61525;SDS011;47394;41.366;-8.738;2022-11-25T08:41:53;47.40;;;20.27;;
61525;SDS011;47394;41.366;-8.738;2022-11-25T08:44:53;35.90;;;21.73;;
61525;SDS011;47394;41.366;-8.738;2022-11-25T08:47:53;45.78;;;22.33;;
61525;SDS011;47394;41.366;-8.738;2022-11-25T08:50:53;42.53;;;23.50;;
61525;SDS011;47394;41.366;-8.738;2022-11-25T08:53:52;36.33;;;24.25;;
61525;SDS011;47394;41.366;-8.738;2022-11-25T08:56:51;41.60;;;24.95;;
61525;SDS011;47394;41.366;-8.738;2022-11-25T08:59:51;42.90;;;27.77;;
61525;SDS011;47394;41.366;-8.738;2022-11-25T09:02:50;39.90;;;25.90;;
61525;SDS011;47394;41.366;-8.738;2022-11-25T09:05:51;46.42;;;28.35;;
61525;SDS011;47394;41.366;-8.738;2022-11-25T09:08:50;43.50;;;28.30;;
61525;SDS011;47394;41.366;-8.738;2022-11-25T09:11:52;45.72;;;31.15;;
61525;SDS011;47394;41.366;-8.738;2022-11-25T09:14:51;47.40;;;32.05;;
61525;SDS011;47394;41.366;-8.738;2022-11-25T09:17:57;52.38;;;32.35;;
61525;SDS011;47394;41.366;-8.738;2022-11-25T09:20:57;52.58;;;32.92;;
61525;SDS011;47394;41.366;-8.738;2022-11-25T09:23:56;59.85;;;36.00;;
61525;SDS011;47394;41.366;-8.738;2022-11-25T09:26:56;56.70;;;36.28;;
61525;SDS011;47394;41.366;-8.738;2022-11-25T09:29:56;60.28;;;37.75;;
61525;SDS011;47394;41.366;-8.738;2022-11-25T09:32:55;55.45;;;34.67;;
61525;SDS011;47394;41.366;-8.738;2022-11-25T09:35:58;49.08;;;31.95;;
61525;SDS011;47394;41.366;-8.738;2022-11-25T09:38:57;49.00;;;31.40;;
61525;SDS011;47394;41.366;-8.738;2022-11-25T09:42:00;44.70;;;30.35;;
61525;SDS011;47394;41.366;-8.738;2022-11-25T09:55:38;41.92;;;26.13;;
61525;SDS011;47394;41.366;-8.738;2022-11-25T09:58:50;41.90;;;25.15;;
61525;SDS011;47394;41.366;-8.738;2022-11-25T10:02:00;42.15;;;22.33;;
61525;SDS011;47394;41.366;-8.738;2022-11-25T10:08:25;36.88;;;21.02;;
61525;SDS011;47394;41.366;-8.738;2022-11-25T10:14:45;39.05;;;21.33;;
61525;SDS011;47394;41.366;-8.738;2022-11-25T10:17:53;39.73;;;21.47;;
61525;SDS011;47394;41.366;-8.738;2022-11-25T10:21:02;51.65;;;21.90;;
61525;SDS011;47394;41.366;-8.738;2022-11-25T10:24:26;31.35;;;20.27;;
61525;SDS011;47394;41.366;-8.738;2022-11-25T10:27:42;43.20;;;18.95;;
61525;SDS011;47394;41.366;-8.738;2022-11-25T10:37:53;33.60;;;17.08;;
61525;SDS011;47394;41.366;-8.738;2022-11-25T10:40:56;30.13;;;15.73;;
61525;SDS011;47394;41.366;-8.738;2022-11-25T10:44:03;28.20;;;14.73;;
61525;SDS011;47394;41.366;-8.738;2022-11-25T10:50:43;24.60;;;12.75;;
61525;SDS011;47394;41.366;-8.738;2022-11-25T10:57:19;24.55;;;10.05;;
61525;SDS011;47394;41.366;-8.738;2022-11-25T11:03:27;22.88;;;10.15;;
61525;SDS011;47394;41.366;-8.738;2022-11-25T11:06:39;28.15;;;11.00;;
61525;SDS011;47394;41.366;-8.738;2022-11-25T11:09:40;24.67;;;10.32;;
61525;SDS011;47394;41.366;-8.738;2022-11-25T11:13:17;26.23;;;10.15;;
61525;SDS011;47394;41.366;-8.738;2022-11-25T11:16:22;26.50;;;9.88;;
61525;SDS011;47394;41.366;-8.738;2022-11-25T11:19:29;17.92;;;8.65;;
61525;SDS011;47394;41.366;-8.738;2022-11-25T11:22:29;23.55;;;9.35;;
61525;SDS011;47394;41.366;-8.738;2022-11-25T11:25:31;25.45;;;9.82;;
61525;SDS011;47394;41.366;-8.738;2022-11-25T11:31:34;28.48;;;8.00;;
61525;SDS011;47394;41.366;-8.738;2022-11-25T11:38:26;22.13;;;6.50;;
61525;SDS011;47394;41.366;-8.738;2022-11-25T11:54:31;26.27;;;6.93;;
61525;SDS011;47394;41.366;-8.738;2022-11-25T11:58:18;18.67;;;5.78;;
61525;SDS011;47394;41.366;-8.738;2022-11-25T12:04:14;20.20;;;5.72;;
61525;SDS011;47394;41.366;-8.738;2022-11-25T12:10:46;17.90;;;5.90;;
61525;SDS011;47394;41.366;-8.738;2022-11-25T12:16:55;16.17;;;4.88;;
61525;SDS011;47394;41.366;-8.738;2022-11-25T12:20:01;14.10;;;4.60;;
61525;SDS011;47394;41.366;-8.738;2022-11-25T12:33:14;19.10;;;4.65;;
61525;SDS011;47394;41.366;-8.738;2022-11-25T12:36:31;17.75;;;4.45;;
61525;SDS011;47394;41.366;-8.738;2022-11-25T12:39:47;15.57;;;3.90;;
61525;SDS011;47394;41.366;-8.738;2022-11-25T12:49:31;21.20;;;4.28;;
61525;SDS011;47394;41.366;-8.738;2022-11-25T12:56:09;12.27;;;3.50;;
61525;SDS011;47394;41.366;-8.738;2022-11-25T13:09:32;10.32;;;4.20;;
61525;SDS011;47394;41.366;-8.738;2022-11-25T13:16:03;13.93;;;3.97;;
61525;SDS011;47394;41.366;-8.738;2022-11-25T13:19:07;11.13;;;3.17;;
61525;SDS011;47394;41.366;-8.738;2022-11-25T13:22:25;11.40;;;3.10;;
61525;SDS011;47394;41.366;-8.738;2022-11-25T13:25:27;12.55;;;3.35;;
61525;SDS011;47394;41.366;-8.738;2022-11-25T13:28:34;9.43;;;3.00;;
61525;SDS011;47394;41.366;-8.738;2022-11-25T13:31:52;16.50;;;3.53;;
61525;SDS011;47394;41.366;-8.738;2022-11-25T13:35:28;12.93;;;3.10;;
61525;SDS011;47394;41.366;-8.738;2022-11-25T13:41:36;13.30;;;3.50;;
61525;SDS011;47394;41.366;-8.738;2022-11-25T13:44:56;12.45;;;3.38;;
61525;SDS011;47394;41.366;-8.738;2022-11-25T13:48:03;8.20;;;3.03;;
61525;SDS011;47394;41.366;-8.738;2022-11-25T13:51:14;14.68;;;2.85;;
61525;SDS011;47394;41.366;-8.738;2022-11-25T13:54:33;12.52;;;3.33;;
61525;SDS011;47394;41.366;-8.738;2022-11-25T13:57:36;7.25;;;3.40;;
61525;SDS011;47394;41.366;-8.738;2022-11-25T14:00:42;15.00;;;3.38;;
61525;SDS011;47394;41.366;-8.738;2022-11-25T14:03:45;12.35;;;3.47;;
61525;SDS011;47394;41.366;-8.738;2022-11-25T14:07:10;15.05;;;4.85;;
61525;SDS011;47394;41.366;-8.738;2022-11-25T14:17:22;12.90;;;3.47;;
61525;SDS011;47394;41.366;-8.738;2022-11-25T14:20:42;10.95;;;3.85;;
61525;SDS011;47394;41.366;-8.738;2022-11-25T14:23:59;12.93;;;3.88;;
61525;SDS011;47394;41.366;-8.738;2022-11-25T14:27:26;11.05;;;3.67;;
61525;SDS011;47394;41.366;-8.738;2022-11-25T14:30:41;13.65;;;4.22;;
61525;SDS011;47394;41.366;-8.738;2022-11-25T14:33:51;12.35;;;4.20;;
61525;SDS011;47394;41.366;-8.738;2022-11-25T14:36:58;16.80;;;4.07;;
61525;SDS011;47394;41.366;-8.738;2022-11-25T14:43:11;10.25;;;3.70;;
61525;SDS011;47394;41.366;-8.738;2022-11-25T14:46:19;10.13;;;3.80;;
61525;SDS011;47394;41.366;-8.738;2022-11-25T14:49:23;7.97;;;3.03;;
61525;SDS011;47394;41.366;-8.738;2022-11-25T14:52:41;7.32;;;2.30;;
61525;SDS011;47394;41.366;-8.738;2022-11-25T14:55:46;5.25;;;2.20;;
61525;SDS011;47394;41.366;-8.738;2022-11-25T14:58:46;8.27;;;2.78;;
61525;SDS011;47394;41.366;-8.738;2022-11-25T15:01:53;7.03;;;2.95;;
61525;SDS011;47394;41.366;-8.738;2022-11-25T15:05:00;8.85;;;3.15;;
61525;SDS011;47394;41.366;-8.738;2022-11-25T15:08:23;7.20;;;3.00;;
61525;SDS011;47394;41.366;-8.738;2022-11-25T15:11:22;6.05;;;2.38;;
61525;SDS011;47394;41.366;-8.738;2022-11-25T15:17:29;12.25;;;3.00;;
61525;SDS011;47394;41.366;-8.738;2022-11-25T15:20:30;7.82;;;3.20;;
61525;SDS011;47394;41.366;-8.738;2022-11-25T15:23:32;11.00;;;3.80;;
61525;SDS011;47394;41.366;-8.738;2022-11-25T15:26:40;7.75;;;3.05;;
61525;SDS011;47394;41.366;-8.738;2022-11-25T15:29:49;7.53;;;2.72;;
61525;SDS011;47394;41.366;-8.738;2022-11-25T15:33:15;8.93;;;3.10;;
61525;SDS011;47394;41.366;-8.738;2022-11-25T15:36:15;7.38;;;3.17;;
61525;SDS011;47394;41.366;-8.738;2022-11-25T15:39:24;6.53;;;2.53;;
61525;SDS011;47394;41.366;-8.738;2022-11-25T15:45:42;8.65;;;2.70;;
61525;SDS011;47394;41.366;-8.738;2022-11-25T15:48:50;7.45;;;2.92;;
61525;SDS011;47394;41.366;-8.738;2022-11-25T15:52:04;5.97;;;2.58;;
61525;SDS011;47394;41.366;-8.738;2022-11-25T15:55:06;9.32;;;3.65;;
61525;SDS011;47394;41.366;-8.738;2022-11-25T16:01:30;11.50;;;3.40;;
61525;SDS011;47394;41.366;-8.738;2022-11-25T16:04:31;8.57;;;3.15;;
61525;SDS011;47394;41.366;-8.738;2022-11-25T16:07:32;8.13;;;3.40;;
61525;SDS011;47394;41.366;-8.738;2022-11-25T16:13:45;12.32;;;3.47;;
61525;SDS011;47394;41.366;-8.738;2022-11-25T16:16:44;7.95;;;3.50;;
61525;SDS011;47394;41.366;-8.738;2022-11-25T16:19:44;9.30;;;3.55;;
61525;SDS011;47394;41.366;-8.738;2022-11-25T16:22:46;11.85;;;3.00;;
61525;SDS011;47394;41.366;-8.738;2022-11-25T16:29:16;45.92;;;10.68;;
61525;SDS011;47394;41.366;-8.738;2022-11-25T16:32:20;47.88;;;10.00;;
61525;SDS011;47394;41.366;-8.738;2022-11-25T16:35:20;41.97;;;10.05;;
61525;SDS011;47394;41.366;-8.738;2022-11-25T16:38:19;43.78;;;10.05;;
61525;SDS011;47394;41.366;-8.738;2022-11-25T16:41:21;38.63;;;9.88;;
61525;SDS011;47394;41.366;-8.738;2022-11-25T16:44:21;30.08;;;7.75;;
61525;SDS011;47394;41.366;-8.738;2022-11-25T16:47:23;32.17;;;8.00;;
61525;SDS011;47394;41.366;-8.738;2022-11-25T16:50:23;53.38;;;8.85;;
61525;SDS011;47394;41.366;-8.738;2022-11-25T16:53:23;45.38;;;10.07;;
61525;SDS011;47394;41.366;-8.738;2022-11-25T16:56:23;38.80;;;8.82;;
61525;SDS011;47394;41.366;-8.738;2022-11-25T16:59:27;57.50;;;9.60;;
61525;SDS011;47394;41.366;-8.738;2022-11-25T17:02:27;42.70;;;8.10;;
61525;SDS011;47394;41.366;-8.738;2022-11-25T17:05:26;37.33;;;8.73;;
61525;SDS011;47394;41.366;-8.738;2022-11-25T17:08:27;46.22;;;9.13;;
61525;SDS011;47394;41.366;-8.738;2022-11-25T17:11:28;37.88;;;8.35;;
61525;SDS011;47394;41.366;-8.738;2022-11-25T17:14:31;47.72;;;10.65;;
61525;SDS011;47394;41.366;-8.738;2022-11-25T17:17:35;81.38;;;12.90;;
61525;SDS011;47394;41.366;-8.738;2022-11-25T17:20:35;64.80;;;13.50;;
61525;SDS011;47394;41.366;-8.738;2022-11-25T17:23:34;79.78;;;13.20;;
61525;SDS011;47394;41.366;-8.738;2022-11-25T17:29:34;55.35;;;11.30;;
61525;SDS011;47394;41.366;-8.738;2022-11-25T17:32:34;48.38;;;11.05;;
61525;SDS011;47394;41.366;-8.738;2022-11-25T17:35:34;56.20;;;11.30;;
61525;SDS011;47394;41.366;-8.738;2022-11-25T17:38:33;66.78;;;13.45;;
61525;SDS011;47394;41.366;-8.738;2022-11-25T17:41:32;60.70;;;14.15;;
61525;SDS011;47394;41.366;-8.738;2022-11-25T17:44:32;66.10;;;14.45;;
61525;SDS011;47394;41.366;-8.738;2022-11-25T17:47:31;69.45;;;15.75;;
61525;SDS011;47394;41.366;-8.738;2022-11-25T17:50:30;92.03;;;21.70;;
61525;SDS011;47394;41.366;-8.738;2022-11-25T17:53:29;80.25;;;19.00;;
61525;SDS011;47394;41.366;-8.738;2022-11-25T17:56:29;92.53;;;22.75;;
61525;SDS011;47394;41.366;-8.738;2022-11-25T17:59:29;103.65;;;23.60;;
61525;SDS011;47394;41.366;-8.738;2022-11-25T18:02:31;79.93;;;22.55;;
61525;SDS011;47394;41.366;-8.738;2022-11-25T18:05:30;89.35;;;21.40;;
61525;SDS011;47394;41.366;-8.738;2022-11-25T18:08:30;81.82;;;21.20;;
61525;SDS011;47394;41.366;-8.738;2022-11-25T18:11:29;90.00;;;23.92;;
61525;SDS011;47394;41.366;-8.738;2022-11-25T18:14:31;68.85;;;19.77;;
61525;SDS011;47394;41.366;-8.738;2022-11-25T18:17:33;82.65;;;18.23;;
61525;SDS011;47394;41.366;-8.738;2022-11-25T18:20:33;85.57;;;20.40;;
61525;SDS011;47394;41.366;-8.738;2022-11-25T18:23:32;80.75;;;19.92;;
61525;SDS011;47394;41.366;-8.738;2022-11-25T18:26:32;100.72;;;22.27;;
61525;SDS011;47394;41.366;-8.738;2022-11-25T18:29:34;93.40;;;21.80;;
61525;SDS011;47394;41.366;-8.738;2022-11-25T18:32:35;94.95;;;20.48;;
61525;SDS011;47394;41.366;-8.738;2022-11-25T18:35:34;78.60;;;19.83;;
61525;SDS011;47394;41.366;-8.738;2022-11-25T18:38:33;66.22;;;19.65;;
61525;SDS011;47394;41.366;-8.738;2022-11-25T18:41:33;81.80;;;20.95;;
61525;SDS011;47394;41.366;-8.738;2022-11-25T18:44:32;76.25;;;20.65;;
61525;SDS011;47394;41.366;-8.738;2022-11-25T18:47:36;90.05;;;19.42;;
61525;SDS011;47394;41.366;-8.738;2022-11-25T18:50:36;81.72;;;20.90;;
61525;SDS011;47394;41.366;-8.738;2022-11-25T18:53:35;72.55;;;18.25;;
61525;SDS011;47394;41.366;-8.738;2022-11-25T18:56:35;61.08;;;20.65;;
61525;SDS011;47394;41.366;-8.738;2022-11-25T18:59:35;124.90;;;27.80;;
61525;SDS011;47394;41.366;-8.738;2022-11-25T19:02:34;75.18;;;25.65;;
61525;SDS011;47394;41.366;-8.738;2022-11-25T19:05:33;84.85;;;23.80;;
61525;SDS011;47394;41.366;-8.738;2022-11-25T19:08:33;73.15;;;22.30;;
61525;SDS011;47394;41.366;-8.738;2022-11-25T19:11:33;64.55;;;20.52;;
61525;SDS011;47394;41.366;-8.738;2022-11-25T19:14:34;62.92;;;19.08;;
61525;SDS011;47394;41.366;-8.738;2022-11-25T19:17:36;57.03;;;20.38;;
61525;SDS011;47394;41.366;-8.738;2022-11-25T19:20:36;64.05;;;19.70;;
61525;SDS011;47394;41.366;-8.738;2022-11-25T19:23:35;59.35;;;19.08;;
61525;SDS011;47394;41.366;-8.738;2022-11-25T19:26:36;45.22;;;16.58;;
61525;SDS011;47394;41.366;-8.738;2022-11-25T19:29:39;49.40;;;16.58;;
61525;SDS011;47394;41.366;-8.738;2022-11-25T19:32:40;44.20;;;15.02;;
61525;SDS011;47394;41.366;-8.738;2022-11-25T19:35:42;47.33;;;15.25;;
61525;SDS011;47394;41.366;-8.738;2022-11-25T19:38:42;60.60;;;18.52;;
61525;SDS011;47394;41.366;-8.738;2022-11-25T19:41:41;81.32;;;19.85;;
61525;SDS011;47394;41.366;-8.738;2022-11-25T19:44:44;66.65;;;19.00;;
61525;SDS011;47394;41.366;-8.738;2022-11-25T19:47:44;83.60;;;20.90;;
61525;SDS011;47394;41.366;-8.738;2022-11-25T19:50:44;68.80;;;21.13;;
61525;SDS011;47394;41.366;-8.738;2022-11-25T19:53:45;70.05;;;19.73;;